createdAt,value
2022-12-20T00:01:52.983Z,26.73
2022-12-20T00:04:21.088Z,24.10
2022-12-20T00:06:48.878Z,23.93
2022-12-20T00:09:16.744Z,24.77
2022-12-20T00:11:44.610Z,21.77
2022-12-20T00:14:12.335Z,23.37
2022-12-20T00:16:40.168Z,23.17
2022-12-20T00:19:08.065Z,24.10
2022-12-20T00:21:36.100Z,22.33
2022-12-20T00:24:04.159Z,22.30
2022-12-20T00:26:32.907Z,21.67
2022-12-20T00:29:01.162Z,23.60
2022-12-20T00:31:30.134Z,22.17
2022-12-20T00:33:58.403Z,25.83
2022-12-20T00:36:27.414Z,24.80
2022-12-20T00:38:56.240Z,24.03
2022-12-20T00:41:30.096Z,24.70
2022-12-20T00:43:57.874Z,23.80
2022-12-20T00:46:25.913Z,24.70
2022-12-20T00:48:54.656Z,22.97
2022-12-20T00:51:27.650Z,21.13
2022-12-20T00:53:55.792Z,23.30
2022-12-20T00:56:23.611Z,22.90
2022-12-20T00:58:54.814Z,25.30
2022-12-20T01:01:28.178Z,22.93
2022-12-20T01:03:56.150Z,21.33
2022-12-20T01:06:24.745Z,20.73
2022-12-20T01:08:53.489Z,23.30
2022-12-20T01:11:22.929Z,23.73
2022-12-20T01:13:52.486Z,21.67
2022-12-20T01:16:22.708Z,23.13
2022-12-20T01:18:50.892Z,22.80
2022-12-20T01:21:19.200Z,21.00
2022-12-20T01:23:47.203Z,21.23
2022-12-20T01:26:16.923Z,20.83
2022-12-20T01:28:45.695Z,21.53
2022-12-20T01:31:18.795Z,21.17
2022-12-20T01:33:47.324Z,20.43
2022-12-20T01:36:17.883Z,19.73
2022-12-20T01:38:45.667Z,20.00
2022-12-20T01:41:20.395Z,18.17
2022-12-20T01:43:55.728Z,17.80
2022-12-20T01:46:25.588Z,18.63
2022-12-20T01:49:25.224Z,18.10
2022-12-20T01:52:13.152Z,19.23
2022-12-20T01:54:43.848Z,19.13
2022-12-20T01:57:17.849Z,19.17
2022-12-20T01:59:46.246Z,18.07
2022-12-20T02:02:14.354Z,19.07
2022-12-20T02:04:42.644Z,18.70
2022-12-20T02:07:10.445Z,18.97
2022-12-20T02:09:38.227Z,19.20
2022-12-20T02:12:38.245Z,18.90
2022-12-20T02:15:24.831Z,20.43
2022-12-20T02:18:07.771Z,19.80
2022-12-20T02:21:11.406Z,20.67
2022-12-20T02:23:59.932Z,21.43
2022-12-20T02:26:36.634Z,19.97
2022-12-20T02:29:26.130Z,20.93
2022-12-20T02:32:01.969Z,22.60
2022-12-20T02:34:30.287Z,21.97
2022-12-20T02:36:59.189Z,20.43
2022-12-20T02:39:27.106Z,21.17
2022-12-20T02:41:57.574Z,22.27
2022-12-20T02:44:45.794Z,21.80
2022-12-20T02:47:17.676Z,22.77
2022-12-20T02:49:46.176Z,21.83
2022-12-20T02:52:14.073Z,22.43
2022-12-20T02:54:43.134Z,23.57
2022-12-20T02:57:24.633Z,23.70
2022-12-20T02:59:58.847Z,22.57
2022-12-20T03:02:26.847Z,22.23
2022-12-20T03:04:55.176Z,23.23
2022-12-20T03:07:23.468Z,21.63
2022-12-20T03:09:51.304Z,23.60
2022-12-20T03:12:19.175Z,21.87
2022-12-20T03:14:47.028Z,20.90
2022-12-20T03:17:15.389Z,21.70
2022-12-20T03:19:43.272Z,22.53
2022-12-20T03:22:11.053Z,21.60
2022-12-20T03:24:38.835Z,22.40
2022-12-20T03:27:06.762Z,22.87
2022-12-20T03:29:34.512Z,21.93
2022-12-20T03:32:02.385Z,20.50
2022-12-20T03:34:31.104Z,21.67
2022-12-20T03:36:59.075Z,21.57
2022-12-20T03:39:26.885Z,22.93
2022-12-20T03:41:54.648Z,20.90
2022-12-20T03:44:22.987Z,21.93
2022-12-20T03:46:50.900Z,21.13
2022-12-20T03:49:18.755Z,20.80
2022-12-20T03:51:46.532Z,20.67
2022-12-20T03:54:14.343Z,22.40
2022-12-20T03:56:42.221Z,21.20
2022-12-20T03:59:10.007Z,20.60
2022-12-20T04:01:39.787Z,21.33
2022-12-20T04:04:08.915Z,22.20
2022-12-20T04:06:36.686Z,23.50
2022-12-20T04:09:04.548Z,21.77
2022-12-20T04:11:32.352Z,21.67
2022-12-20T04:14:00.091Z,20.63
2022-12-20T04:16:29.397Z,20.10
2022-12-20T04:18:57.194Z,21.03
2022-12-20T04:21:30.634Z,21.57
2022-12-20T04:23:59.042Z,24.00
2022-12-20T04:26:26.865Z,21.33
2022-12-20T04:28:54.680Z,20.40
2022-12-20T04:31:24.413Z,20.40
2022-12-20T04:33:52.615Z,20.70
2022-12-20T04:36:20.526Z,21.20
2022-12-20T04:38:48.429Z,20.80
2022-12-20T04:41:23.380Z,20.87
2022-12-20T04:43:52.419Z,19.27
2022-12-20T04:46:21.571Z,22.37
2022-12-20T04:48:58.891Z,21.27
2022-12-20T04:51:27.891Z,21.90
2022-12-20T04:53:56.108Z,21.47
2022-12-20T04:56:29.396Z,21.13
2022-12-20T04:58:58.200Z,23.93
2022-12-20T05:01:26.147Z,21.03
2022-12-20T05:03:54.281Z,21.27
2022-12-20T05:06:22.100Z,20.40
2022-12-20T05:08:49.915Z,20.30
2022-12-20T05:11:17.833Z,21.07
2022-12-20T05:13:45.624Z,22.13
2022-12-20T05:16:13.454Z,21.67
2022-12-20T05:18:46.672Z,20.87
2022-12-20T05:21:35.446Z,19.13
2022-12-20T05:24:21.731Z,19.50
2022-12-20T05:26:49.531Z,20.97
2022-12-20T05:29:17.977Z,20.27
2022-12-20T05:31:45.886Z,20.67
2022-12-20T05:34:13.753Z,20.70
2022-12-20T05:36:41.527Z,19.47
2022-12-20T05:39:09.334Z,20.57
2022-12-20T05:41:37.083Z,19.37
2022-12-20T05:44:05.307Z,19.83
2022-12-20T05:46:33.133Z,20.70
2022-12-20T05:49:00.879Z,19.60
2022-12-20T05:51:28.783Z,22.20
2022-12-20T05:53:56.517Z,19.37
2022-12-20T05:56:24.266Z,20.30
2022-12-20T05:58:52.096Z,20.70
2022-12-20T06:01:20.041Z,21.93
2022-12-20T06:03:47.964Z,21.27
2022-12-20T06:06:15.845Z,23.33
2022-12-20T06:08:43.949Z,22.63
2022-12-20T06:11:11.755Z,21.23
2022-12-20T06:13:39.513Z,22.63
2022-12-20T06:16:08.386Z,20.83
2022-12-20T06:18:36.170Z,20.93
2022-12-20T06:21:04.769Z,21.43
2022-12-20T06:23:32.851Z,21.97
2022-12-20T06:26:00.805Z,22.43
2022-12-20T06:28:28.635Z,22.47
2022-12-20T06:30:57.190Z,21.50
2022-12-20T06:33:25.649Z,21.77
2022-12-20T06:35:53.615Z,22.70
2022-12-20T06:38:21.921Z,23.80
2022-12-20T06:40:49.718Z,23.00
2022-12-20T06:43:17.968Z,23.27
2022-12-20T06:45:46.007Z,24.07
2022-12-20T06:48:14.163Z,23.23
2022-12-20T06:50:42.027Z,24.73
2022-12-20T06:53:09.865Z,23.50
2022-12-20T06:55:37.673Z,22.60
2022-12-20T06:58:05.558Z,21.07
2022-12-20T07:00:33.700Z,21.47
2022-12-20T07:03:01.640Z,22.77
2022-12-20T07:05:29.595Z,21.20
2022-12-20T07:07:57.366Z,22.57
2022-12-20T07:10:25.279Z,24.27
2022-12-20T07:12:54.014Z,25.00
2022-12-20T07:15:23.341Z,23.90
2022-12-20T07:17:51.087Z,23.53
2022-12-20T07:20:19.520Z,23.73
2022-12-20T07:22:50.763Z,24.80
2022-12-20T07:25:18.574Z,21.67
2022-12-20T07:27:51.061Z,23.23
2022-12-20T07:30:20.169Z,21.57
2022-12-20T07:32:48.190Z,21.33
2022-12-20T07:35:16.219Z,20.87
2022-12-20T07:37:44.112Z,22.43
2022-12-20T07:40:12.704Z,19.63
2022-12-20T07:42:48.018Z,20.53
2022-12-20T07:45:16.744Z,21.10
2022-12-20T07:47:44.997Z,20.63
2022-12-20T07:50:13.097Z,19.90
2022-12-20T07:52:41.353Z,21.27
2022-12-20T07:55:09.743Z,19.07
2022-12-20T07:57:47.252Z,18.50
2022-12-20T08:00:16.284Z,18.57
2022-12-20T08:02:55.435Z,19.27
2022-12-20T08:05:23.896Z,18.63
2022-12-20T08:07:58.482Z,18.87
2022-12-20T08:10:27.238Z,17.97
2022-12-20T08:12:55.297Z,18.60
2022-12-20T08:15:24.412Z,18.77
2022-12-20T08:17:52.615Z,19.77
2022-12-20T08:20:20.873Z,19.70
2022-12-20T08:22:48.934Z,19.77
2022-12-20T08:25:16.869Z,19.43
2022-12-20T08:27:45.240Z,20.50
2022-12-20T08:30:13.998Z,19.57
2022-12-20T08:32:42.088Z,21.87
2022-12-20T08:35:10.443Z,21.00
2022-12-20T08:37:38.461Z,21.13
2022-12-20T08:40:07.077Z,21.33
2022-12-20T08:42:35.183Z,22.57
2022-12-20T08:45:03.163Z,21.13
2022-12-20T08:47:31.362Z,21.27
2022-12-20T08:49:59.385Z,21.43
2022-12-20T08:52:27.306Z,21.07
2022-12-20T08:54:55.647Z,21.27
2022-12-20T08:57:24.113Z,22.23
2022-12-20T08:59:52.031Z,20.50
2022-12-20T09:02:20.183Z,22.90
2022-12-20T09:04:48.903Z,23.73
2022-12-20T09:07:17.128Z,22.17
2022-12-20T09:09:45.179Z,20.87
2022-12-20T09:12:13.279Z,22.37
2022-12-20T09:14:41.226Z,23.70
2022-12-20T09:17:09.252Z,23.13
2022-12-20T09:19:37.137Z,22.53
2022-12-20T09:22:05.855Z,21.33
2022-12-20T09:24:33.884Z,22.80
2022-12-20T09:27:01.941Z,23.93
2022-12-20T09:29:35.538Z,22.83
2022-12-20T09:32:03.972Z,24.17
2022-12-20T09:34:31.976Z,22.60
2022-12-20T09:36:59.921Z,23.93
2022-12-20T09:39:27.950Z,23.23
2022-12-20T09:41:55.824Z,23.83
2022-12-20T09:44:30.137Z,23.40
2022-12-20T09:47:27.509Z,23.80
2022-12-20T09:49:57.168Z,26.60
2022-12-20T09:52:29.743Z,24.47
2022-12-20T09:55:19.745Z,23.77
2022-12-20T09:58:16.703Z,23.63
2022-12-20T10:00:53.230Z,24.27
2022-12-20T10:03:25.131Z,25.43
2022-12-20T10:05:56.028Z,23.03
2022-12-20T10:08:32.363Z,23.63
2022-12-20T10:11:43.364Z,23.97
2022-12-20T10:14:40.185Z,23.47
2022-12-20T10:17:39.967Z,23.27
2022-12-20T10:20:16.944Z,21.97
2022-12-20T10:22:54.458Z,23.13
2022-12-20T10:25:24.605Z,22.70
2022-12-20T10:27:54.261Z,24.00
2022-12-20T10:30:24.380Z,23.93
2022-12-20T10:32:53.925Z,22.20
2022-12-20T10:35:26.167Z,21.53
2022-12-20T10:38:21.971Z,22.10
2022-12-20T10:41:21.361Z,22.50
2022-12-20T10:44:07.497Z,23.07
2022-12-20T10:46:42.550Z,22.33
2022-12-20T10:49:35.657Z,20.60
2022-12-20T10:52:05.906Z,20.47
2022-12-20T10:54:38.450Z,20.07
2022-12-20T10:57:28.499Z,20.10
2022-12-20T11:00:01.815Z,19.20
2022-12-20T11:02:40.010Z,19.07
2022-12-20T11:05:12.981Z,19.30
2022-12-20T11:08:33.568Z,18.00
2022-12-20T11:10:43.828Z,18.23
2022-12-20T11:13:27.210Z,17.87
2022-12-20T11:16:02.887Z,17.63
2022-12-20T11:18:58.339Z,16.90
2022-12-20T11:21:51.582Z,17.20
2022-12-20T11:24:23.261Z,16.80
2022-12-20T11:27:15.247Z,18.17
2022-12-20T11:30:17.391Z,17.33
2022-12-20T11:32:57.752Z,18.50
2022-12-20T11:35:52.132Z,18.13
2022-12-20T11:38:43.470Z,18.70
2022-12-20T11:41:37.756Z,18.57
2022-12-20T11:44:26.652Z,18.17
2022-12-20T11:47:19.867Z,19.53
2022-12-20T11:50:21.340Z,19.33
2022-12-20T11:52:53.808Z,20.70
2022-12-20T11:55:36.339Z,20.20
2022-12-20T11:58:26.116Z,19.63
2022-12-20T12:01:16.904Z,19.27
2022-12-20T12:03:57.229Z,19.97
2022-12-20T12:06:29.344Z,21.90
2022-12-20T12:09:06.249Z,20.57
2022-12-20T12:14:40.424Z,19.70
2022-12-20T12:17:11.737Z,19.90
2022-12-20T12:19:41.732Z,20.93
2022-12-20T12:22:14.596Z,20.20
2022-12-20T12:24:45.196Z,19.20
2022-12-20T12:27:39.603Z,19.43
2022-12-20T12:30:09.100Z,19.07
2022-12-20T12:32:44.392Z,19.13
2022-12-20T12:35:15.907Z,19.50
2022-12-20T12:37:57.201Z,18.53
2022-12-20T12:40:35.863Z,19.60
2022-12-20T12:43:39.341Z,19.10
2022-12-20T12:46:29.096Z,19.67
2022-12-20T12:49:02.795Z,20.30
2022-12-20T12:51:41.027Z,18.73
2022-12-20T12:54:29.962Z,19.93
2022-12-20T12:57:04.559Z,18.20
2022-12-20T12:59:35.584Z,19.70
2022-12-20T13:02:16.524Z,18.90
2022-12-20T13:05:00.354Z,18.97
2022-12-20T13:07:38.658Z,19.87
2022-12-20T13:10:22.061Z,19.53
2022-12-20T13:12:53.319Z,19.20
2022-12-20T13:15:21.458Z,19.13
2022-12-20T13:17:52.623Z,19.20
2022-12-20T13:20:28.519Z,17.27
2022-12-20T13:23:14.716Z,18.13
2022-12-20T13:25:42.608Z,19.13
2022-12-20T13:28:25.893Z,25.03
2022-12-20T13:31:02.994Z,22.70
2022-12-20T13:33:44.993Z,19.83
2022-12-20T13:36:13.462Z,18.90
2022-12-20T13:38:44.744Z,18.80
2022-12-20T13:41:35.361Z,17.83
2022-12-20T13:44:42.748Z,17.40
2022-12-20T13:47:34.435Z,18.77
2022-12-20T13:50:04.947Z,16.77
2022-12-20T13:52:35.111Z,17.50
2022-12-20T13:55:09.455Z,17.40
2022-12-20T13:57:45.203Z,20.53
2022-12-20T14:00:19.238Z,18.53
2022-12-20T14:02:47.507Z,18.90
2022-12-20T14:05:28.531Z,18.27
2022-12-20T14:08:20.425Z,18.93
2022-12-20T14:10:48.516Z,19.37
2022-12-20T14:13:25.141Z,18.53
2022-12-20T14:15:53.355Z,18.03
2022-12-20T14:18:22.872Z,19.80
2022-12-20T14:20:53.332Z,19.23
2022-12-20T14:23:23.717Z,18.97
2022-12-20T14:25:57.324Z,20.33
2022-12-20T14:28:39.336Z,19.13
2022-12-20T14:31:08.745Z,19.20
2022-12-20T14:33:43.021Z,17.83
2022-12-20T14:36:12.537Z,18.23
2022-12-20T14:38:40.615Z,18.47
2022-12-20T14:41:31.704Z,17.10
2022-12-20T14:44:02.829Z,16.47
2022-12-20T14:46:33.924Z,16.93
2022-12-20T14:49:31.396Z,16.20
2022-12-20T14:52:13.386Z,17.10
2022-12-20T14:55:07.821Z,16.10
2022-12-20T14:57:36.874Z,15.87
2022-12-20T15:00:32.027Z,15.93
2022-12-20T15:03:19.517Z,15.57
2022-12-20T15:05:52.133Z,15.30
2022-12-20T15:08:36.348Z,15.10
2022-12-20T15:11:13.063Z,15.73
2022-12-20T15:13:43.502Z,15.13
2022-12-20T15:16:25.040Z,16.17
2022-12-20T15:19:00.884Z,15.33
2022-12-20T15:21:38.672Z,15.87
2022-12-20T15:24:11.327Z,15.40
2022-12-20T15:26:39.504Z,15.93
2022-12-20T15:29:07.564Z,15.27
2022-12-20T15:31:36.699Z,15.13
2022-12-20T15:34:25.036Z,15.67
2022-12-20T15:36:53.388Z,15.00
2022-12-20T15:39:23.942Z,15.70
2022-12-20T15:41:52.112Z,15.60
2022-12-20T15:44:27.709Z,14.67
2022-12-20T15:46:56.049Z,14.73
2022-12-20T15:49:26.242Z,14.57
2022-12-20T15:51:55.309Z,14.87
2022-12-20T15:54:28.799Z,15.37
2022-12-20T15:56:57.507Z,15.70
2022-12-20T15:59:58.502Z,15.77
2022-12-20T16:02:30.454Z,15.17
2022-12-20T16:04:59.342Z,15.20
2022-12-20T16:07:27.751Z,15.97
2022-12-20T16:09:56.048Z,18.83
2022-12-20T16:12:32.047Z,15.80
2022-12-20T16:15:00.080Z,16.17
2022-12-20T16:17:28.035Z,16.37
2022-12-20T16:19:56.788Z,16.67
2022-12-20T16:22:25.672Z,16.23
2022-12-20T16:24:54.244Z,16.13
2022-12-20T16:27:22.919Z,15.60
2022-12-20T16:29:53.364Z,15.73
2022-12-20T16:32:22.945Z,14.87
2022-12-20T16:34:54.495Z,14.20
2022-12-20T16:37:22.928Z,15.03
2022-12-20T16:39:50.892Z,15.00
2022-12-20T16:42:20.942Z,15.43
2022-12-20T16:44:52.864Z,15.30
2022-12-20T16:47:20.843Z,16.17
2022-12-20T16:49:53.018Z,16.37
2022-12-20T16:52:23.329Z,16.07
2022-12-20T16:54:51.936Z,18.83
2022-12-20T16:57:20.902Z,18.80
2022-12-20T16:59:48.943Z,19.53
2022-12-20T17:02:34.740Z,19.70
2022-12-20T17:05:03.670Z,16.83
2022-12-20T17:07:36.503Z,16.23
2022-12-20T17:10:14.114Z,15.87
2022-12-20T17:12:42.231Z,15.50
2022-12-20T17:15:40.488Z,16.77
2022-12-20T17:18:08.963Z,18.05
2022-12-20T17:20:38.173Z,16.10
2022-12-20T17:23:07.113Z,15.90
2022-12-20T17:25:36.579Z,15.20
2022-12-20T17:28:04.469Z,15.23
2022-12-20T17:30:32.525Z,15.40
2022-12-20T17:33:00.798Z,15.30
2022-12-20T17:35:31.651Z,13.97
2022-12-20T17:38:00.110Z,14.60
2022-12-20T17:40:28.975Z,15.73
2022-12-20T17:42:57.351Z,16.83
2022-12-20T17:45:33.805Z,17.47
2022-12-20T17:48:02.134Z,16.40
2022-12-20T17:50:30.042Z,17.27
2022-12-20T17:52:58.158Z,16.23
2022-12-20T17:55:28.775Z,17.00
2022-12-20T17:57:56.866Z,16.20
2022-12-20T18:00:38.902Z,16.97
2022-12-20T18:03:15.822Z,16.33
2022-12-20T18:06:00.859Z,15.80
2022-12-20T18:08:31.997Z,16.53
2022-12-20T18:11:00.185Z,16.47
2022-12-20T18:13:28.189Z,16.60
2022-12-20T18:15:56.274Z,17.33
2022-12-20T18:18:24.304Z,16.77
2022-12-20T18:20:52.252Z,16.17
2022-12-20T18:23:20.222Z,16.53
2022-12-20T18:25:51.144Z,16.73
2022-12-20T18:28:19.085Z,16.63
2022-12-20T18:30:47.232Z,15.67
2022-12-20T18:33:17.689Z,16.10
2022-12-20T18:35:45.707Z,16.60
2022-12-20T18:38:14.865Z,16.10
2022-12-20T18:40:47.967Z,15.93
2022-12-20T18:43:18.461Z,16.67
2022-12-20T18:45:47.829Z,16.17
2022-12-20T18:48:16.291Z,17.53
2022-12-20T18:50:45.082Z,17.57
2022-12-20T18:53:13.978Z,20.93
2022-12-20T18:55:41.791Z,19.87
2022-12-20T18:58:09.657Z,17.90
2022-12-20T19:00:37.609Z,18.50
2022-12-20T19:03:06.001Z,19.97
2022-12-20T19:05:34.656Z,18.83
2022-12-20T19:08:02.737Z,18.80
2022-12-20T19:10:34.392Z,19.60
2022-12-20T19:13:05.998Z,17.40
2022-12-20T19:15:34.317Z,17.87
2022-12-20T19:18:02.869Z,17.13
2022-12-20T19:20:30.944Z,17.53
2022-12-20T19:22:58.912Z,17.30
2022-12-20T19:25:26.873Z,17.50
2022-12-20T19:27:54.831Z,16.90
2022-12-20T19:30:23.662Z,16.63
2022-12-20T19:32:51.657Z,16.63
2022-12-20T19:35:53.595Z,16.80
2022-12-20T19:38:09.300Z,16.33
2022-12-20T19:40:38.043Z,16.47
2022-12-20T19:43:06.215Z,15.97
2022-12-20T19:45:38.360Z,16.77
2022-12-20T19:48:06.950Z,16.00
2022-12-20T19:50:34.919Z,16.10
2022-12-20T19:53:02.829Z,16.73
2022-12-20T19:55:30.818Z,16.93
2022-12-20T19:57:58.822Z,16.17
2022-12-20T20:00:29.112Z,16.63
2022-12-20T20:02:57.402Z,17.93
2022-12-20T20:05:25.640Z,15.43
2022-12-20T20:07:53.746Z,15.67
2022-12-20T20:10:21.674Z,16.80
2022-12-20T20:12:49.621Z,16.53
2022-12-20T20:15:18.149Z,16.37
2022-12-20T20:17:46.225Z,16.07
2022-12-20T20:20:14.331Z,15.40
2022-12-20T20:22:42.248Z,15.60
2022-12-20T20:25:10.487Z,15.17
2022-12-20T20:27:38.701Z,18.77
2022-12-20T20:30:08.755Z,15.90
2022-12-20T20:32:36.769Z,15.70
2022-12-20T20:35:05.957Z,15.40
2022-12-20T20:37:34.133Z,15.90
2022-12-20T20:40:02.166Z,16.57
2022-12-20T20:42:30.357Z,17.50
2022-12-20T20:44:58.241Z,16.90
2022-12-20T20:47:26.229Z,16.80
2022-12-20T20:49:54.343Z,16.97
2022-12-20T20:52:23.181Z,16.47
2022-12-20T20:54:51.130Z,17.87
2022-12-20T20:57:19.174Z,25.35
2022-12-20T20:59:47.267Z,19.10
2022-12-20T21:02:16.316Z,17.13
2022-12-20T21:04:53.577Z,17.10
2022-12-20T21:07:32.943Z,17.20
2022-12-20T21:10:01.129Z,16.60
2022-12-20T21:12:29.799Z,20.70
2022-12-20T21:15:22.612Z,17.17
2022-12-20T21:17:47.796Z,16.80
2022-12-20T21:20:19.293Z,16.80
2022-12-20T21:22:50.287Z,17.57
2022-12-20T21:25:18.688Z,16.20
2022-12-20T21:27:46.747Z,16.80
2022-12-20T21:30:14.895Z,17.53
2022-12-20T21:32:42.885Z,16.77
2022-12-20T21:35:11.598Z,16.53
2022-12-20T21:37:39.732Z,16.67
2022-12-20T21:40:10.001Z,17.40
2022-12-20T21:42:37.928Z,18.67
2022-12-20T21:45:07.312Z,17.50
2022-12-20T21:47:37.170Z,17.30
2022-12-20T21:50:07.182Z,17.93
2022-12-20T21:52:35.235Z,17.83
2022-12-20T21:55:03.414Z,16.77
2022-12-20T21:57:32.771Z,17.63
2022-12-20T22:00:02.564Z,17.67
2022-12-20T22:02:31.095Z,17.30
2022-12-20T22:04:59.181Z,19.00
2022-12-20T22:07:27.304Z,17.57
2022-12-20T22:09:55.434Z,20.47
2022-12-20T22:12:23.481Z,17.13
2022-12-20T22:14:51.599Z,16.20
2022-12-20T22:17:19.721Z,18.43
2022-12-20T22:19:47.835Z,16.83
2022-12-20T22:22:16.423Z,17.80
2022-12-20T22:24:44.435Z,17.50
2022-12-20T22:27:12.621Z,17.43
2022-12-20T22:29:42.761Z,16.77
2022-12-20T22:32:11.669Z,16.67
2022-12-20T22:34:39.729Z,16.97
2022-12-20T22:37:07.881Z,15.97
2022-12-20T22:39:36.498Z,16.00
2022-12-20T22:42:04.967Z,15.70
2022-12-20T22:44:33.494Z,15.53
2022-12-20T22:47:01.515Z,16.23
2022-12-20T22:49:30.013Z,19.07
2022-12-20T22:52:06.839Z,17.53
2022-12-20T22:54:36.276Z,17.50
2022-12-20T22:57:04.646Z,17.60
2022-12-20T22:59:33.854Z,17.27
2022-12-20T23:02:02.273Z,17.23
2022-12-20T23:04:30.564Z,17.87
2022-12-20T23:06:58.670Z,16.57
2022-12-20T23:09:27.485Z,16.50
2022-12-20T23:12:14.431Z,16.63
2022-12-20T23:15:04.264Z,16.10
2022-12-20T23:17:33.863Z,16.10
2022-12-20T23:20:20.610Z,16.57
2022-12-20T23:22:48.776Z,15.97
2022-12-20T23:25:22.643Z,16.60
2022-12-20T23:27:51.044Z,15.93
2022-12-20T23:30:20.790Z,16.17
2022-12-20T23:32:49.140Z,14.87
2022-12-20T23:35:18.481Z,15.50
2022-12-20T23:37:49.036Z,14.60
2022-12-20T23:40:18.502Z,15.83
2022-12-20T23:42:46.445Z,15.57
2022-12-20T23:45:14.601Z,16.47
2022-12-20T23:47:42.811Z,15.73
2022-12-20T23:50:11.523Z,15.47
2022-12-20T23:52:41.043Z,15.53
2022-12-20T23:55:09.387Z,15.00
2022-12-20T23:57:37.363Z,15.87
